EJU96AL LIRN-LEIB
Flight info
| Callsign | EJU96AL |
|---|---|
| Flight time | N/A |
| Altitude | 38000 |
| Route | EDOPA DCT TAGEL DCT BETOT DCT EKPOD DCT GOKMI DCT SUPUX DCT KUPIM DCT SUXER DCT RIPAL DCT MORSS |
| Aircraft | A319/M-SDE2E3FGIJ1RWXYZ/LB1 |
Departure
| Time | 2026-04-27 17:51 |
|---|---|
| Airport | Naples International Airport (LIRN) |
Arrival
| Time | N/A |
|---|---|
| Airport | Ibiza Airport (LEIB) |
| Time | Latitude | Longitude | Altitude | Speed | Heading |
|---|---|---|---|---|---|
| 2026-04-27 17:19 | 40.87835 | 14.28092 | 295 ft | 0 kts | 141° |
| 2026-04-27 17:41 | 40.87848 | 14.28077 | 299 ft | 4 kts | 134° |
| 2026-04-27 17:41 | 40.87865 | 14.28050 | 298 ft | 4 kts | 117° |
| 2026-04-27 17:42 | 40.87875 | 14.28017 | 297 ft | 4 kts | 96° |
| 2026-04-27 17:42 | 40.87873 | 14.27982 | 296 ft | 4 kts | 61° |
| 2026-04-27 17:42 | 40.87869 | 14.27974 | 300 ft | 0 kts | 51° |
| 2026-04-27 17:45 | 40.87885 | 14.28000 | 299 ft | 8 kts | 51° |
| 2026-04-27 17:45 | 40.87936 | 14.28081 | 296 ft | 15 kts | 51° |
| 2026-04-27 17:45 | 40.87958 | 14.28204 | 291 ft | 14 kts | 98° |
| 2026-04-27 17:45 | 40.87944 | 14.28346 | 289 ft | 17 kts | 97° |
| 2026-04-27 17:46 | 40.87961 | 14.28484 | 287 ft | 15 kts | 43° |
| 2026-04-27 17:46 | 40.88033 | 14.28584 | 284 ft | 15 kts | 53° |
| 2026-04-27 17:46 | 40.88100 | 14.28700 | 281 ft | 16 kts | 52° |
| 2026-04-27 17:46 | 40.88165 | 14.28812 | 278 ft | 15 kts | 53° |
| 2026-04-27 17:47 | 40.88226 | 14.28919 | 276 ft | 14 kts | 53° |
| 2026-04-27 17:47 | 40.88266 | 14.28987 | 274 ft | 14 kts | 52° |
| 2026-04-27 17:47 | 40.88345 | 14.29122 | 271 ft | 14 kts | 51° |
| 2026-04-27 17:47 | 40.88414 | 14.29242 | 268 ft | 20 kts | 53° |
| 2026-04-27 17:48 | 40.88509 | 14.29408 | 263 ft | 24 kts | 52° |
| 2026-04-27 17:48 | 40.88616 | 14.29595 | 258 ft | 27 kts | 52° |
| 2026-04-27 17:48 | 40.88734 | 14.29798 | 252 ft | 29 kts | 52° |
| 2026-04-27 17:48 | 40.88863 | 14.30016 | 244 ft | 31 kts | 52° |
| 2026-04-27 17:49 | 40.88968 | 14.30203 | 238 ft | 24 kts | 53° |
| 2026-04-27 17:49 | 40.89071 | 14.30234 | 236 ft | 12 kts | 333° |
| 2026-04-27 17:49 | 40.89122 | 14.30175 | 235 ft | 7 kts | 247° |
| 2026-04-27 17:49 | 40.89103 | 14.30134 | 236 ft | 4 kts | 238° |
| 2026-04-27 17:50 | 40.89090 | 14.30106 | 237 ft | 9 kts | 238° |
| 2026-04-27 17:50 | 40.88488 | 14.28839 | 274 ft | 147 kts | 237° |
| 2026-04-27 17:50 | 40.87915 | 14.27600 | 696 ft | 158 kts | 236° |
| 2026-04-27 17:51 | 40.87148 | 14.26599 | 1381 ft | 158 kts | 208° |
| 2026-04-27 17:51 | 40.86035 | 14.26331 | 1895 ft | 175 kts | 175° |
| 2026-04-27 17:51 | 40.84782 | 14.26560 | 2387 ft | 189 kts | 173° |
| 2026-04-27 17:51 | 40.83441 | 14.26797 | 2930 ft | 199 kts | 173° |
| 2026-04-27 17:52 | 40.82055 | 14.27007 | 3608 ft | 201 kts | 174° |
| 2026-04-27 17:52 | 40.80668 | 14.27186 | 4322 ft | 200 kts | 175° |
| 2026-04-27 17:52 | 40.79282 | 14.27348 | 5031 ft | 200 kts | 174° |
| 2026-04-27 17:52 | 40.77885 | 14.27554 | 5580 ft | 208 kts | 173° |
| 2026-04-27 17:53 | 40.76404 | 14.27809 | 6098 ft | 218 kts | 172° |
| 2026-04-27 17:53 | 40.74914 | 14.28076 | 6980 ft | 210 kts | 173° |
| 2026-04-27 17:53 | 40.73482 | 14.28294 | 7881 ft | 206 kts | 174° |
| 2026-04-27 17:53 | 40.72050 | 14.28434 | 8574 ft | 208 kts | 185° |
| 2026-04-27 17:54 | 40.70642 | 14.27957 | 9196 ft | 215 kts | 206° |
| 2026-04-27 17:54 | 40.69367 | 14.26741 | 9509 ft | 239 kts | 222° |
| 2026-04-27 17:54 | 40.68058 | 14.25214 | 9878 ft | 263 kts | 221° |
| 2026-04-27 17:54 | 40.66616 | 14.23555 | 10229 ft | 288 kts | 221° |
| 2026-04-27 17:55 | 40.65042 | 14.21752 | 10532 ft | 312 kts | 221° |
| 2026-04-27 17:55 | 40.63358 | 14.19834 | 11041 ft | 326 kts | 221° |
| 2026-04-27 17:55 | 40.61623 | 14.17865 | 11781 ft | 332 kts | 221° |
| 2026-04-27 17:55 | 40.59859 | 14.15866 | 12569 ft | 337 kts | 221° |
| 2026-04-27 17:56 | 40.58073 | 14.13842 | 13359 ft | 341 kts | 221° |
| 2026-04-27 17:56 | 40.56264 | 14.11791 | 14106 ft | 345 kts | 222° |
| 2026-04-27 17:56 | 40.54430 | 14.09709 | 14786 ft | 349 kts | 222° |
| 2026-04-27 17:56 | 40.52584 | 14.07608 | 15467 ft | 353 kts | 223° |
| 2026-04-27 17:57 | 40.50909 | 14.05238 | 16136 ft | 355 kts | 234° |
| 2026-04-27 17:57 | 40.49630 | 14.02504 | 16811 ft | 357 kts | 246° |
| 2026-04-27 17:57 | 40.48715 | 13.99466 | 17487 ft | 359 kts | 252° |
| 2026-04-27 17:57 | 40.47850 | 13.96366 | 18173 ft | 363 kts | 252° |
| 2026-04-27 17:58 | 40.46960 | 13.93201 | 18812 ft | 366 kts | 251° |
| 2026-04-27 17:58 | 40.46072 | 13.90056 | 19436 ft | 369 kts | 251° |
| 2026-04-27 17:58 | 40.45176 | 13.86885 | 20044 ft | 372 kts | 251° |
| 2026-04-27 17:58 | 40.44272 | 13.83694 | 20669 ft | 374 kts | 251° |
| 2026-04-27 17:59 | 40.43358 | 13.80483 | 21281 ft | 377 kts | 251° |
| 2026-04-27 17:59 | 40.42449 | 13.77294 | 21878 ft | 380 kts | 251° |
| 2026-04-27 17:59 | 40.41529 | 13.74031 | 22479 ft | 382 kts | 251° |
| 2026-04-27 17:59 | 40.40611 | 13.70690 | 23082 ft | 385 kts | 252° |
| 2026-04-27 18:00 | 40.39725 | 13.67419 | 23655 ft | 388 kts | 252° |
| 2026-04-27 18:00 | 40.38806 | 13.64016 | 24141 ft | 391 kts | 252° |
| 2026-04-27 18:00 | 40.37905 | 13.60686 | 24599 ft | 394 kts | 252° |
| 2026-04-27 18:00 | 40.36981 | 13.57292 | 25061 ft | 397 kts | 251° |
| 2026-04-27 18:01 | 40.36049 | 13.53878 | 25514 ft | 399 kts | 251° |
| 2026-04-27 18:01 | 40.35105 | 13.50444 | 25968 ft | 402 kts | 251° |
| 2026-04-27 18:01 | 40.34153 | 13.46992 | 26404 ft | 404 kts | 251° |
| 2026-04-27 18:01 | 40.33194 | 13.43518 | 26836 ft | 407 kts | 251° |
| 2026-04-27 18:02 | 40.32226 | 13.40022 | 27270 ft | 409 kts | 251° |
| 2026-04-27 18:02 | 40.31252 | 13.36508 | 27688 ft | 411 kts | 251° |
| 2026-04-27 18:02 | 40.30396 | 13.32928 | 28102 ft | 413 kts | 258° |
| 2026-04-27 18:02 | 40.30008 | 13.29200 | 28518 ft | 414 kts | 268° |
| 2026-04-27 18:03 | 40.30096 | 13.25424 | 28931 ft | 416 kts | 275° |
| 2026-04-27 18:03 | 40.30323 | 13.21633 | 29340 ft | 419 kts | 275° |
| 2026-04-27 18:03 | 40.30549 | 13.17821 | 29744 ft | 421 kts | 275° |
| 2026-04-27 18:03 | 40.30776 | 13.13990 | 30142 ft | 424 kts | 275° |
| 2026-04-27 18:04 | 40.31004 | 13.10128 | 30470 ft | 426 kts | 275° |
| 2026-04-27 18:04 | 40.31230 | 13.06249 | 30804 ft | 428 kts | 275° |
| 2026-04-27 18:04 | 40.31455 | 13.02353 | 31133 ft | 430 kts | 275° |
| 2026-04-27 18:04 | 40.31677 | 12.98439 | 31459 ft | 432 kts | 275° |
| 2026-04-27 18:05 | 40.31898 | 12.94508 | 31785 ft | 433 kts | 275° |
| 2026-04-27 18:05 | 40.32119 | 12.90576 | 32252 ft | 431 kts | 275° |
| 2026-04-27 18:05 | 40.32340 | 12.86658 | 32716 ft | 430 kts | 275° |
| 2026-04-27 18:05 | 40.32556 | 12.82754 | 33169 ft | 429 kts | 275° |
| 2026-04-27 18:06 | 40.32770 | 12.78860 | 33627 ft | 427 kts | 275° |
| 2026-04-27 18:06 | 40.32985 | 12.74978 | 34076 ft | 426 kts | 275° |
| 2026-04-27 18:06 | 40.33199 | 12.71116 | 34465 ft | 425 kts | 275° |
| 2026-04-27 18:06 | 40.33412 | 12.67251 | 34829 ft | 424 kts | 275° |
| 2026-04-27 18:07 | 40.33620 | 12.63399 | 35175 ft | 424 kts | 275° |
| 2026-04-27 18:07 | 40.33825 | 12.59546 | 35506 ft | 423 kts | 275° |
| 2026-04-27 18:07 | 40.34025 | 12.55706 | 35831 ft | 423 kts | 275° |
| 2026-04-27 18:07 | 40.34225 | 12.51863 | 36153 ft | 422 kts | 275° |
| 2026-04-27 18:08 | 40.34426 | 12.48026 | 36458 ft | 422 kts | 275° |
| 2026-04-27 18:08 | 40.34628 | 12.44194 | 36760 ft | 421 kts | 275° |
| 2026-04-27 18:08 | 40.34828 | 12.40362 | 37035 ft | 422 kts | 275° |
| 2026-04-27 18:08 | 40.35023 | 12.36534 | 37112 ft | 419 kts | 275° |
| 2026-04-27 18:09 | 40.35410 | 12.28929 | 37120 ft | 421 kts | 275° |
| 2026-04-27 18:09 | 40.35804 | 12.21158 | 37118 ft | 432 kts | 275° |
| 2026-04-27 18:10 | 40.36202 | 12.13265 | 37115 ft | 435 kts | 275° |
| 2026-04-27 18:10 | 40.36589 | 12.05356 | 37121 ft | 435 kts | 274° |
| 2026-04-27 18:11 | 40.36974 | 11.97441 | 37120 ft | 435 kts | 275° |
| 2026-04-27 18:11 | 40.37351 | 11.89521 | 37115 ft | 435 kts | 274° |
| 2026-04-27 18:12 | 40.37723 | 11.81601 | 37113 ft | 435 kts | 274° |
| 2026-04-27 18:12 | 40.38094 | 11.73682 | 37115 ft | 435 kts | 274° |
| 2026-04-27 18:13 | 40.38455 | 11.65755 | 37115 ft | 435 kts | 274° |
| 2026-04-27 18:13 | 40.38778 | 11.57823 | 37116 ft | 436 kts | 274° |
| 2026-04-27 18:14 | 40.39030 | 11.49878 | 37117 ft | 436 kts | 273° |
| 2026-04-27 18:14 | 40.39269 | 11.41935 | 37120 ft | 436 kts | 273° |
| 2026-04-27 18:15 | 40.39478 | 11.35323 | 37125 ft | 436 kts | 273° |
| 2026-04-27 18:15 | 40.39731 | 11.27379 | 37126 ft | 436 kts | 273° |
| 2026-04-27 18:16 | 40.39991 | 11.19426 | 37126 ft | 436 kts | 273° |
| 2026-04-27 18:16 | 40.40227 | 11.11476 | 37130 ft | 436 kts | 273° |
| 2026-04-27 18:17 | 40.40453 | 11.03518 | 37131 ft | 436 kts | 273° |
| 2026-04-27 18:17 | 40.40683 | 10.95563 | 37126 ft | 436 kts | 273° |
| 2026-04-27 18:18 | 40.40899 | 10.87644 | 37111 ft | 426 kts | 273° |
| 2026-04-27 18:18 | 40.41099 | 10.79996 | 37122 ft | 416 kts | 273° |
| 2026-04-27 18:19 | 40.41296 | 10.72421 | 37119 ft | 415 kts | 273° |
| 2026-04-27 18:19 | 40.41497 | 10.64852 | 37118 ft | 415 kts | 273° |
| 2026-04-27 18:20 | 40.41691 | 10.57281 | 37119 ft | 415 kts | 273° |
| 2026-04-27 18:20 | 40.41881 | 10.49716 | 37118 ft | 415 kts | 273° |
| 2026-04-27 18:21 | 40.42060 | 10.42144 | 37112 ft | 415 kts | 273° |
| 2026-04-27 18:21 | 40.42233 | 10.34568 | 37116 ft | 415 kts | 272° |
| 2026-04-27 18:22 | 40.42394 | 10.26991 | 37123 ft | 416 kts | 272° |
| 2026-04-27 18:22 | 40.42556 | 10.19400 | 37124 ft | 416 kts | 272° |
| 2026-04-27 18:23 | 40.42721 | 10.11809 | 37122 ft | 416 kts | 272° |
| 2026-04-27 18:23 | 40.42872 | 10.04230 | 37120 ft | 415 kts | 272° |
| 2026-04-27 18:24 | 40.43016 | 9.96663 | 37118 ft | 415 kts | 272° |
| 2026-04-27 18:24 | 40.43177 | 9.89092 | 37108 ft | 415 kts | 276° |
| 2026-04-27 18:25 | 40.43805 | 9.85423 | 37094 ft | 413 kts | 293° |
| 2026-04-27 18:25 | 40.44948 | 9.81963 | 37092 ft | 413 kts | 289° |
| 2026-04-27 18:25 | 40.46210 | 9.74589 | 37091 ft | 416 kts | 274° |
| 2026-04-27 18:26 | 40.46036 | 9.66991 | 37108 ft | 417 kts | 269° |
| 2026-04-27 18:26 | 40.45768 | 9.59395 | 37109 ft | 417 kts | 269° |
| 2026-04-27 18:27 | 40.45492 | 9.51799 | 37110 ft | 416 kts | 269° |
| 2026-04-27 18:27 | 40.45210 | 9.44211 | 37107 ft | 416 kts | 268° |
| 2026-04-27 18:28 | 40.44927 | 9.36625 | 37107 ft | 416 kts | 269° |
| 2026-04-27 18:28 | 40.44641 | 9.29044 | 37105 ft | 416 kts | 268° |
| 2026-04-27 18:29 | 40.44348 | 9.21456 | 37112 ft | 416 kts | 268° |
| 2026-04-27 18:29 | 40.44151 | 9.13874 | 37114 ft | 415 kts | 271° |
| 2026-04-27 18:30 | 40.44181 | 9.06297 | 37114 ft | 415 kts | 272° |
| 2026-04-27 18:30 | 40.44223 | 8.98729 | 37108 ft | 415 kts | 271° |
| 2026-04-27 18:31 | 40.44211 | 8.91156 | 37107 ft | 415 kts | 271° |
| 2026-04-27 18:31 | 40.44172 | 8.83589 | 37106 ft | 415 kts | 271° |
| 2026-04-27 18:32 | 40.44131 | 8.76018 | 37104 ft | 415 kts | 271° |
| 2026-04-27 18:32 | 40.44092 | 8.68432 | 37106 ft | 415 kts | 271° |
| 2026-04-27 18:33 | 40.44048 | 8.60855 | 37101 ft | 415 kts | 271° |
| 2026-04-27 18:33 | 40.43999 | 8.53271 | 37100 ft | 416 kts | 271° |
| 2026-04-27 18:34 | 40.43951 | 8.45687 | 37097 ft | 416 kts | 271° |
| 2026-04-27 18:34 | 40.43893 | 8.38086 | 37097 ft | 416 kts | 271° |
| 2026-04-27 18:35 | 40.43823 | 8.30498 | 37095 ft | 416 kts | 271° |
| 2026-04-27 18:35 | 40.43738 | 8.22916 | 37082 ft | 416 kts | 270° |
| 2026-04-27 18:36 | 40.43407 | 8.15339 | 37098 ft | 416 kts | 267° |
| 2026-04-27 18:36 | 40.42918 | 8.07764 | 37103 ft | 416 kts | 266° |
| 2026-04-27 18:37 | 40.42432 | 8.00243 | 37102 ft | 417 kts | 265° |
| 2026-04-27 18:37 | 40.41522 | 7.92673 | 37111 ft | 417 kts | 262° |
| 2026-04-27 18:38 | 40.40584 | 7.85160 | 37116 ft | 417 kts | 262° |
| 2026-04-27 18:38 | 40.39635 | 7.77700 | 37119 ft | 417 kts | 262° |
| 2026-04-27 18:39 | 40.38677 | 7.70191 | 37115 ft | 417 kts | 262° |
| 2026-04-27 18:39 | 40.37712 | 7.62698 | 37113 ft | 417 kts | 262° |
| 2026-04-27 18:40 | 40.36742 | 7.55207 | 37110 ft | 417 kts | 262° |
| 2026-04-27 18:40 | 40.35774 | 7.47717 | 37113 ft | 417 kts | 262° |
| 2026-04-27 18:41 | 40.34801 | 7.40225 | 37115 ft | 417 kts | 262° |
| 2026-04-27 18:41 | 40.33828 | 7.32736 | 37115 ft | 417 kts | 262° |
| 2026-04-27 18:42 | 40.33014 | 7.26456 | 37115 ft | 417 kts | 262° |
| 2026-04-27 18:42 | 40.31868 | 7.17755 | 37114 ft | 417 kts | 262° |
| 2026-04-27 18:43 | 40.30862 | 7.10277 | 37116 ft | 417 kts | 262° |
| 2026-04-27 18:43 | 40.29866 | 7.02802 | 37117 ft | 417 kts | 262° |
| 2026-04-27 18:44 | 40.28861 | 6.95326 | 37118 ft | 417 kts | 262° |
| 2026-04-27 18:44 | 40.27843 | 6.87852 | 37114 ft | 417 kts | 262° |
| 2026-04-27 18:45 | 40.26827 | 6.80389 | 37113 ft | 416 kts | 262° |
| 2026-04-27 18:45 | 40.25809 | 6.72937 | 37110 ft | 415 kts | 262° |
| 2026-04-27 18:46 | 40.24792 | 6.65494 | 37104 ft | 415 kts | 262° |
| 2026-04-27 18:46 | 40.23764 | 6.58043 | 37103 ft | 415 kts | 262° |
| 2026-04-27 18:47 | 40.22739 | 6.50606 | 37102 ft | 416 kts | 262° |
| 2026-04-27 18:47 | 40.21712 | 6.43157 | 37101 ft | 416 kts | 262° |
| 2026-04-27 18:48 | 40.20683 | 6.35704 | 37108 ft | 416 kts | 262° |
| 2026-04-27 18:48 | 40.19638 | 6.28260 | 37107 ft | 416 kts | 261° |
| 2026-04-27 18:49 | 40.18580 | 6.20820 | 37110 ft | 416 kts | 261° |
| 2026-04-27 18:49 | 40.17525 | 6.13380 | 37111 ft | 416 kts | 261° |
| 2026-04-27 18:50 | 40.16457 | 6.05941 | 37115 ft | 416 kts | 261° |
| 2026-04-27 18:50 | 40.15395 | 5.98512 | 37111 ft | 416 kts | 261° |
| 2026-04-27 18:51 | 40.14330 | 5.91085 | 37109 ft | 416 kts | 261° |
| 2026-04-27 18:51 | 40.13254 | 5.83660 | 37112 ft | 416 kts | 261° |
| 2026-04-27 18:52 | 40.12200 | 5.76233 | 37110 ft | 416 kts | 261° |
| 2026-04-27 18:53 | 40.10632 | 5.65099 | 37111 ft | 415 kts | 261° |
| 2026-04-27 18:53 | 40.09581 | 5.57681 | 37105 ft | 415 kts | 261° |
| 2026-04-27 18:54 | 40.08518 | 5.50272 | 37102 ft | 415 kts | 261° |
| 2026-04-27 18:54 | 40.07457 | 5.42868 | 37101 ft | 415 kts | 261° |
| 2026-04-27 18:55 | 40.06387 | 5.35461 | 37105 ft | 415 kts | 261° |
| 2026-04-27 18:55 | 40.05309 | 5.28063 | 37101 ft | 415 kts | 261° |
| 2026-04-27 18:56 | 40.04413 | 5.21913 | 37103 ft | 415 kts | 261° |
| 2026-04-27 18:56 | 40.03335 | 5.14516 | 37100 ft | 415 kts | 261° |
| 2026-04-27 18:57 | 40.02247 | 5.07122 | 37103 ft | 415 kts | 260° |
| 2026-04-27 18:57 | 40.01153 | 4.99730 | 37104 ft | 415 kts | 261° |
| 2026-04-27 18:58 | 40.00066 | 4.92345 | 37103 ft | 415 kts | 260° |
| 2026-04-27 18:58 | 39.98963 | 4.84959 | 37097 ft | 415 kts | 260° |
| 2026-04-27 18:59 | 39.97850 | 4.77570 | 37102 ft | 415 kts | 260° |